N571GT MYNN-KPBI
Flight info
| Callsign | N571GT |
|---|---|
| Flight time | 0h 52m |
| Altitude | 26000 |
| Route | PEACH MAHHI3 |
| Aircraft | C525/L-SDFGRWY/SB1 |
Departure
| Time | 2026-04-16 21:56 |
|---|---|
| Airport | Lynden Pindling International Airport (MYNN) |
Arrival
| Time | 2026-04-16 22:48 |
|---|---|
| Airport | Palm Beach International Airport (KPBI) |
| Time | Latitude | Longitude | Altitude | Speed | Heading |
|---|---|---|---|---|---|
| 2026-04-16 21:32 | 25.03094 | -77.45674 | 20 ft | 0 kts | 224° |
| 2026-04-16 21:48 | 25.03092 | -77.45678 | 20 ft | 1 kts | 250° |
| 2026-04-16 21:48 | 25.03100 | -77.45702 | 20 ft | 4 kts | 303° |
| 2026-04-16 21:48 | 25.03136 | -77.45721 | 20 ft | 7 kts | 4° |
| 2026-04-16 21:48 | 25.03159 | -77.45718 | 20 ft | 0 kts | 12° |
| 2026-04-16 21:49 | 25.03165 | -77.45716 | 20 ft | 2 kts | 12° |
| 2026-04-16 21:49 | 25.03192 | -77.45709 | 20 ft | 5 kts | 13° |
| 2026-04-16 21:49 | 25.03242 | -77.45695 | 20 ft | 8 kts | 16° |
| 2026-04-16 21:49 | 25.03302 | -77.45673 | 20 ft | 6 kts | 22° |
| 2026-04-16 21:50 | 25.03316 | -77.45667 | 19 ft | 0 kts | 20° |
| 2026-04-16 21:50 | 25.03328 | -77.45661 | 20 ft | 4 kts | 21° |
| 2026-04-16 21:51 | 25.03371 | -77.45641 | 20 ft | 9 kts | 24° |
| 2026-04-16 21:51 | 25.03442 | -77.45605 | 20 ft | 13 kts | 35° |
| 2026-04-16 21:51 | 25.03518 | -77.45526 | 20 ft | 13 kts | 44° |
| 2026-04-16 21:51 | 25.03592 | -77.45541 | 19 ft | 13 kts | 316° |
| 2026-04-16 21:52 | 25.03673 | -77.45629 | 20 ft | 19 kts | 315° |
| 2026-04-16 21:52 | 25.03774 | -77.45740 | 20 ft | 20 kts | 315° |
| 2026-04-16 21:52 | 25.03871 | -77.45849 | 19 ft | 19 kts | 315° |
| 2026-04-16 21:52 | 25.03975 | -77.45965 | 20 ft | 22 kts | 317° |
| 2026-04-16 21:53 | 25.04090 | -77.46090 | 20 ft | 24 kts | 314° |
| 2026-04-16 21:53 | 25.04212 | -77.46227 | 19 ft | 26 kts | 315° |
| 2026-04-16 21:53 | 25.04257 | -77.46278 | 20 ft | 26 kts | 314° |
| 2026-04-16 21:53 | 25.04397 | -77.46433 | 20 ft | 28 kts | 316° |
| 2026-04-16 21:54 | 25.04530 | -77.46582 | 20 ft | 26 kts | 316° |
| 2026-04-16 21:54 | 25.04654 | -77.46719 | 20 ft | 25 kts | 315° |
| 2026-04-16 21:54 | 25.04775 | -77.46853 | 20 ft | 23 kts | 311° |
| 2026-04-16 21:54 | 25.04795 | -77.46996 | 20 ft | 18 kts | 260° |
| 2026-04-16 21:55 | 25.04759 | -77.47088 | 20 ft | 9 kts | 174° |
| 2026-04-16 21:55 | 25.04749 | -77.47081 | 20 ft | 0 kts | 134° |
| 2026-04-16 21:55 | 25.04682 | -77.47006 | 20 ft | 42 kts | 134° |
| 2026-04-16 21:55 | 25.04324 | -77.46610 | 20 ft | 98 kts | 134° |
| 2026-04-16 21:56 | 25.03760 | -77.46010 | 210 ft | 118 kts | 133° |
| 2026-04-16 21:56 | 25.03165 | -77.45406 | 572 ft | 122 kts | 133° |
| 2026-04-16 21:56 | 25.02460 | -77.44726 | 805 ft | 144 kts | 134° |
| 2026-04-16 21:56 | 25.01965 | -77.43844 | 1345 ft | 133 kts | 88° |
| 2026-04-16 21:57 | 25.02352 | -77.42991 | 1899 ft | 130 kts | 47° |
| 2026-04-16 21:57 | 25.03045 | -77.42349 | 2446 ft | 134 kts | 42° |
| 2026-04-16 21:57 | 25.03824 | -77.41779 | 3015 ft | 140 kts | 20° |
| 2026-04-16 21:57 | 25.04794 | -77.41961 | 3593 ft | 150 kts | 340° |
| 2026-04-16 21:58 | 25.05700 | -77.42592 | 4132 ft | 156 kts | 329° |
| 2026-04-16 21:58 | 25.06552 | -77.43327 | 4679 ft | 158 kts | 326° |
| 2026-04-16 21:58 | 25.07395 | -77.44092 | 5215 ft | 159 kts | 325° |
| 2026-04-16 21:58 | 25.08245 | -77.44876 | 5745 ft | 161 kts | 324° |
| 2026-04-16 21:59 | 25.09097 | -77.45667 | 6272 ft | 161 kts | 324° |
| 2026-04-16 21:59 | 25.09947 | -77.46455 | 6797 ft | 161 kts | 323° |
| 2026-04-16 21:59 | 25.10808 | -77.47256 | 7333 ft | 163 kts | 323° |
| 2026-04-16 21:59 | 25.11666 | -77.48055 | 7899 ft | 163 kts | 323° |
| 2026-04-16 22:00 | 25.12524 | -77.48854 | 8437 ft | 165 kts | 323° |
| 2026-04-16 22:00 | 25.13402 | -77.49672 | 8991 ft | 165 kts | 323° |
| 2026-04-16 22:00 | 25.14279 | -77.50488 | 9506 ft | 166 kts | 323° |
| 2026-04-16 22:00 | 25.15160 | -77.51309 | 10015 ft | 168 kts | 323° |
| 2026-04-16 22:01 | 25.16041 | -77.52130 | 10520 ft | 168 kts | 323° |
| 2026-04-16 22:01 | 25.16940 | -77.52967 | 11026 ft | 170 kts | 323° |
| 2026-04-16 22:01 | 25.17840 | -77.53806 | 11554 ft | 170 kts | 323° |
| 2026-04-16 22:01 | 25.18745 | -77.54649 | 12069 ft | 171 kts | 323° |
| 2026-04-16 22:02 | 25.19655 | -77.55498 | 12566 ft | 172 kts | 323° |
| 2026-04-16 22:02 | 25.20565 | -77.56347 | 13038 ft | 173 kts | 323° |
| 2026-04-16 22:02 | 25.21476 | -77.57196 | 13520 ft | 174 kts | 323° |
| 2026-04-16 22:02 | 25.22407 | -77.58065 | 13999 ft | 175 kts | 323° |
| 2026-04-16 22:03 | 25.23336 | -77.58932 | 14468 ft | 176 kts | 323° |
| 2026-04-16 22:03 | 25.24276 | -77.59810 | 14928 ft | 178 kts | 323° |
| 2026-04-16 22:03 | 25.25207 | -77.60679 | 15356 ft | 179 kts | 323° |
| 2026-04-16 22:03 | 25.26165 | -77.61574 | 15795 ft | 180 kts | 324° |
| 2026-04-16 22:04 | 25.27125 | -77.62470 | 16188 ft | 183 kts | 324° |
| 2026-04-16 22:04 | 25.28097 | -77.63378 | 16622 ft | 184 kts | 324° |
| 2026-04-16 22:04 | 25.29075 | -77.64292 | 17046 ft | 186 kts | 324° |
| 2026-04-16 22:04 | 25.30070 | -77.65224 | 17492 ft | 187 kts | 324° |
| 2026-04-16 22:05 | 25.31063 | -77.66152 | 17932 ft | 188 kts | 323° |
| 2026-04-16 22:05 | 25.32052 | -77.67078 | 18344 ft | 188 kts | 323° |
| 2026-04-16 22:05 | 25.33051 | -77.68014 | 18766 ft | 188 kts | 324° |
| 2026-04-16 22:05 | 25.34058 | -77.68957 | 19177 ft | 189 kts | 324° |
| 2026-04-16 22:06 | 25.35059 | -77.69894 | 19593 ft | 189 kts | 324° |
| 2026-04-16 22:06 | 25.37069 | -77.71776 | 20372 ft | 190 kts | 323° |
| 2026-04-16 22:06 | 25.38072 | -77.72716 | 20731 ft | 191 kts | 323° |
| 2026-04-16 22:07 | 25.39091 | -77.73671 | 21134 ft | 190 kts | 323° |
| 2026-04-16 22:07 | 25.40101 | -77.74617 | 21491 ft | 191 kts | 324° |
| 2026-04-16 22:07 | 25.41111 | -77.75564 | 21863 ft | 191 kts | 324° |
| 2026-04-16 22:07 | 25.42137 | -77.76524 | 22050 ft | 202 kts | 323° |
| 2026-04-16 22:08 | 25.43163 | -77.77693 | 22093 ft | 223 kts | 310° |
| 2026-04-16 22:08 | 25.44046 | -77.79221 | 22096 ft | 244 kts | 304° |
| 2026-04-16 22:08 | 25.44916 | -77.80900 | 22092 ft | 262 kts | 303° |
| 2026-04-16 22:08 | 25.45832 | -77.82707 | 22084 ft | 278 kts | 302° |
| 2026-04-16 22:09 | 25.46800 | -77.84618 | 22084 ft | 293 kts | 302° |
| 2026-04-16 22:09 | 25.47817 | -77.86622 | 22081 ft | 306 kts | 302° |
| 2026-04-16 22:09 | 25.48891 | -77.88731 | 22084 ft | 318 kts | 302° |
| 2026-04-16 22:09 | 25.49998 | -77.90899 | 22080 ft | 328 kts | 302° |
| 2026-04-16 22:10 | 25.51143 | -77.93140 | 22075 ft | 338 kts | 302° |
| 2026-04-16 22:10 | 25.52312 | -77.95426 | 22073 ft | 345 kts | 302° |
| 2026-04-16 22:10 | 25.53494 | -77.97738 | 22070 ft | 348 kts | 302° |
| 2026-04-16 22:10 | 25.54695 | -78.00085 | 22078 ft | 349 kts | 302° |
| 2026-04-16 22:11 | 25.55891 | -78.02423 | 22071 ft | 350 kts | 302° |
| 2026-04-16 22:11 | 25.57084 | -78.04754 | 22069 ft | 351 kts | 302° |
| 2026-04-16 22:11 | 25.58301 | -78.07132 | 22075 ft | 351 kts | 302° |
| 2026-04-16 22:11 | 25.59501 | -78.09479 | 22069 ft | 352 kts | 302° |
| 2026-04-16 22:12 | 25.60706 | -78.11835 | 22070 ft | 352 kts | 302° |
| 2026-04-16 22:12 | 25.61898 | -78.14167 | 22070 ft | 352 kts | 302° |
| 2026-04-16 22:12 | 25.63108 | -78.16525 | 22076 ft | 352 kts | 302° |
| 2026-04-16 22:12 | 25.64326 | -78.18913 | 22073 ft | 352 kts | 302° |
| 2026-04-16 22:13 | 25.65520 | -78.21253 | 22069 ft | 353 kts | 302° |
| 2026-04-16 22:13 | 25.66713 | -78.23592 | 22073 ft | 353 kts | 302° |
| 2026-04-16 22:13 | 25.67936 | -78.25988 | 22074 ft | 353 kts | 302° |
| 2026-04-16 22:13 | 25.69145 | -78.28361 | 22069 ft | 353 kts | 302° |
| 2026-04-16 22:14 | 25.70359 | -78.30741 | 22068 ft | 353 kts | 302° |
| 2026-04-16 22:14 | 25.71557 | -78.33093 | 22076 ft | 353 kts | 302° |
| 2026-04-16 22:14 | 25.72774 | -78.35483 | 22077 ft | 353 kts | 302° |
| 2026-04-16 22:14 | 25.73969 | -78.37831 | 22082 ft | 353 kts | 302° |
| 2026-04-16 22:15 | 25.75181 | -78.40215 | 22076 ft | 353 kts | 302° |
| 2026-04-16 22:15 | 25.76383 | -78.42578 | 22078 ft | 353 kts | 302° |
| 2026-04-16 22:15 | 25.77599 | -78.44971 | 22080 ft | 353 kts | 302° |
| 2026-04-16 22:15 | 25.78792 | -78.47321 | 22073 ft | 353 kts | 302° |
| 2026-04-16 22:16 | 25.79993 | -78.49685 | 22069 ft | 353 kts | 302° |
| 2026-04-16 22:16 | 25.81213 | -78.52091 | 21752 ft | 358 kts | 301° |
| 2026-04-16 22:16 | 25.82429 | -78.54491 | 21395 ft | 360 kts | 301° |
| 2026-04-16 22:16 | 25.83653 | -78.56908 | 21031 ft | 357 kts | 301° |
| 2026-04-16 22:17 | 25.84859 | -78.59291 | 20673 ft | 351 kts | 301° |
| 2026-04-16 22:17 | 25.86054 | -78.61652 | 20307 ft | 345 kts | 302° |
| 2026-04-16 22:17 | 25.87219 | -78.63954 | 19982 ft | 339 kts | 301° |
| 2026-04-16 22:17 | 25.88351 | -78.66193 | 19671 ft | 334 kts | 301° |
| 2026-04-16 22:18 | 25.89489 | -78.68443 | 19356 ft | 330 kts | 301° |
| 2026-04-16 22:18 | 25.90607 | -78.70654 | 19043 ft | 327 kts | 301° |
| 2026-04-16 22:18 | 25.91711 | -78.72841 | 18696 ft | 325 kts | 301° |
| 2026-04-16 22:18 | 25.92813 | -78.75023 | 18338 ft | 325 kts | 301° |
| 2026-04-16 22:19 | 25.93918 | -78.77213 | 17985 ft | 327 kts | 301° |
| 2026-04-16 22:19 | 25.95035 | -78.79428 | 17631 ft | 329 kts | 300° |
| 2026-04-16 22:19 | 25.96188 | -78.81585 | 17280 ft | 329 kts | 303° |
| 2026-04-16 22:19 | 25.97426 | -78.83751 | 16928 ft | 329 kts | 304° |
| 2026-04-16 22:20 | 25.98656 | -78.85882 | 16572 ft | 328 kts | 304° |
| 2026-04-16 22:20 | 25.99886 | -78.88011 | 16215 ft | 327 kts | 304° |
| 2026-04-16 22:20 | 26.01108 | -78.90131 | 15851 ft | 324 kts | 304° |
| 2026-04-16 22:20 | 26.02302 | -78.92209 | 15501 ft | 320 kts | 304° |
| 2026-04-16 22:21 | 26.03493 | -78.94283 | 15136 ft | 317 kts | 304° |
| 2026-04-16 22:21 | 26.04686 | -78.96365 | 14731 ft | 316 kts | 304° |
| 2026-04-16 22:21 | 26.05848 | -78.98394 | 14335 ft | 315 kts | 304° |
| 2026-04-16 22:21 | 26.07019 | -79.00443 | 13928 ft | 313 kts | 304° |
| 2026-04-16 22:22 | 26.08186 | -79.02488 | 13519 ft | 311 kts | 304° |
| 2026-04-16 22:22 | 26.09346 | -79.04521 | 13110 ft | 310 kts | 304° |
| 2026-04-16 22:22 | 26.10486 | -79.06519 | 12711 ft | 307 kts | 304° |
| 2026-04-16 22:22 | 26.11621 | -79.08514 | 12324 ft | 302 kts | 304° |
| 2026-04-16 22:23 | 26.12727 | -79.10455 | 11974 ft | 297 kts | 304° |
| 2026-04-16 22:23 | 26.13830 | -79.12395 | 11614 ft | 295 kts | 304° |
| 2026-04-16 22:23 | 26.14919 | -79.14308 | 11261 ft | 293 kts | 304° |
| 2026-04-16 22:23 | 26.16005 | -79.16219 | 10907 ft | 291 kts | 304° |
| 2026-04-16 22:24 | 26.17094 | -79.18133 | 10545 ft | 290 kts | 303° |
| 2026-04-16 22:24 | 26.18161 | -79.20012 | 10211 ft | 289 kts | 303° |
| 2026-04-16 22:24 | 26.19241 | -79.21914 | 9872 ft | 288 kts | 303° |
| 2026-04-16 22:24 | 26.20302 | -79.23783 | 9542 ft | 287 kts | 303° |
| 2026-04-16 22:25 | 26.21369 | -79.25663 | 9211 ft | 286 kts | 303° |
| 2026-04-16 22:25 | 26.22432 | -79.27538 | 8874 ft | 285 kts | 303° |
| 2026-04-16 22:25 | 26.23477 | -79.29381 | 8548 ft | 285 kts | 303° |
| 2026-04-16 22:25 | 26.24535 | -79.31248 | 8215 ft | 284 kts | 303° |
| 2026-04-16 22:26 | 26.25590 | -79.33111 | 7877 ft | 284 kts | 303° |
| 2026-04-16 22:26 | 26.26640 | -79.34965 | 7546 ft | 283 kts | 303° |
| 2026-04-16 22:26 | 26.27685 | -79.36813 | 7208 ft | 283 kts | 303° |
| 2026-04-16 22:26 | 26.28737 | -79.38672 | 6886 ft | 282 kts | 303° |
| 2026-04-16 22:27 | 26.29741 | -79.40448 | 6586 ft | 281 kts | 303° |
| 2026-04-16 22:27 | 26.30783 | -79.42291 | 6272 ft | 281 kts | 303° |
| 2026-04-16 22:27 | 26.31816 | -79.44119 | 5960 ft | 280 kts | 303° |
| 2026-04-16 22:27 | 26.32857 | -79.45964 | 5646 ft | 280 kts | 303° |
| 2026-04-16 22:28 | 26.33885 | -79.47784 | 5335 ft | 279 kts | 303° |
| 2026-04-16 22:28 | 26.34918 | -79.49616 | 5042 ft | 278 kts | 303° |
| 2026-04-16 22:28 | 26.35943 | -79.51433 | 4967 ft | 281 kts | 303° |
| 2026-04-16 22:28 | 26.36998 | -79.53302 | 4960 ft | 283 kts | 303° |
| 2026-04-16 22:29 | 26.38039 | -79.55147 | 4957 ft | 281 kts | 303° |
| 2026-04-16 22:29 | 26.39071 | -79.56979 | 4955 ft | 280 kts | 303° |
| 2026-04-16 22:29 | 26.40121 | -79.58842 | 4956 ft | 279 kts | 303° |
| 2026-04-16 22:29 | 26.41151 | -79.60672 | 4955 ft | 279 kts | 303° |
| 2026-04-16 22:30 | 26.42176 | -79.62493 | 4958 ft | 278 kts | 303° |
| 2026-04-16 22:30 | 26.43201 | -79.64317 | 4960 ft | 278 kts | 303° |
| 2026-04-16 22:30 | 26.44226 | -79.66140 | 4960 ft | 277 kts | 302° |
| 2026-04-16 22:30 | 26.45263 | -79.67985 | 4958 ft | 277 kts | 302° |
| 2026-04-16 22:31 | 26.46283 | -79.69801 | 4957 ft | 277 kts | 302° |
| 2026-04-16 22:31 | 26.47300 | -79.71611 | 4958 ft | 277 kts | 302° |
| 2026-04-16 22:31 | 26.48322 | -79.73433 | 4954 ft | 277 kts | 302° |
| 2026-04-16 22:31 | 26.49344 | -79.75254 | 4969 ft | 276 kts | 302° |
| 2026-04-16 22:32 | 26.50322 | -79.77104 | 4962 ft | 277 kts | 298° |
| 2026-04-16 22:32 | 26.51186 | -79.79022 | 4954 ft | 277 kts | 297° |
| 2026-04-16 22:32 | 26.52021 | -79.80936 | 4953 ft | 276 kts | 296° |
| 2026-04-16 22:32 | 26.52854 | -79.82859 | 4974 ft | 274 kts | 296° |
| 2026-04-16 22:33 | 26.53693 | -79.84795 | 5002 ft | 274 kts | 296° |
| 2026-04-16 22:33 | 26.54525 | -79.86714 | 4995 ft | 274 kts | 296° |
| 2026-04-16 22:33 | 26.55356 | -79.88631 | 4995 ft | 275 kts | 296° |
| 2026-04-16 22:33 | 26.56190 | -79.90556 | 4993 ft | 275 kts | 296° |
| 2026-04-16 22:34 | 26.57011 | -79.92485 | 4938 ft | 274 kts | 296° |
| 2026-04-16 22:34 | 26.57820 | -79.94345 | 4791 ft | 265 kts | 296° |
| 2026-04-16 22:34 | 26.58619 | -79.96181 | 4614 ft | 260 kts | 296° |
| 2026-04-16 22:34 | 26.59399 | -79.97973 | 4446 ft | 256 kts | 296° |
| 2026-04-16 22:35 | 26.60179 | -79.99762 | 4277 ft | 253 kts | 296° |
| 2026-04-16 22:35 | 26.60946 | -80.01518 | 4104 ft | 250 kts | 296° |
| 2026-04-16 22:35 | 26.61701 | -80.03247 | 3931 ft | 248 kts | 296° |
| 2026-04-16 22:35 | 26.62455 | -80.04978 | 3759 ft | 247 kts | 296° |
| 2026-04-16 22:36 | 26.63199 | -80.06690 | 3588 ft | 246 kts | 296° |
| 2026-04-16 22:36 | 26.63664 | -80.08512 | 3404 ft | 245 kts | 271° |
| 2026-04-16 22:36 | 26.63530 | -80.10418 | 3259 ft | 243 kts | 262° |
| 2026-04-16 22:36 | 26.63274 | -80.12254 | 3081 ft | 240 kts | 259° |
| 2026-04-16 22:37 | 26.62970 | -80.14057 | 3006 ft | 231 kts | 258° |
| 2026-04-16 22:37 | 26.62659 | -80.15784 | 2989 ft | 221 kts | 258° |
| 2026-04-16 22:37 | 26.62358 | -80.17423 | 2991 ft | 216 kts | 258° |
| 2026-04-16 22:37 | 26.62049 | -80.19089 | 3000 ft | 218 kts | 258° |
| 2026-04-16 22:38 | 26.61740 | -80.20729 | 3002 ft | 216 kts | 258° |
| 2026-04-16 22:38 | 26.61510 | -80.22357 | 2977 ft | 209 kts | 265° |
| 2026-04-16 22:38 | 26.61412 | -80.23981 | 2810 ft | 211 kts | 267° |
| 2026-04-16 22:38 | 26.61338 | -80.25628 | 2639 ft | 211 kts | 268° |
| 2026-04-16 22:39 | 26.61271 | -80.27236 | 2583 ft | 205 kts | 268° |
| 2026-04-16 22:39 | 26.61206 | -80.28820 | 2470 ft | 205 kts | 268° |
| 2026-04-16 22:39 | 26.61141 | -80.30416 | 2349 ft | 206 kts | 268° |
| 2026-04-16 22:39 | 26.61071 | -80.32018 | 2231 ft | 206 kts | 268° |
| 2026-04-16 22:40 | 26.60996 | -80.33627 | 2109 ft | 206 kts | 268° |
| 2026-04-16 22:40 | 26.60917 | -80.35220 | 2013 ft | 204 kts | 268° |
| 2026-04-16 22:40 | 26.60909 | -80.36781 | 1964 ft | 199 kts | 284° |
| 2026-04-16 22:40 | 26.61653 | -80.37979 | 1965 ft | 186 kts | 331° |
| 2026-04-16 22:41 | 26.62866 | -80.38364 | 1995 ft | 178 kts | 357° |
| 2026-04-16 22:41 | 26.64102 | -80.38380 | 1955 ft | 176 kts | 17° |
| 2026-04-16 22:41 | 26.65044 | -80.37587 | 1974 ft | 170 kts | 55° |
| 2026-04-16 22:41 | 26.65680 | -80.36453 | 1981 ft | 175 kts | 61° |
| 2026-04-16 22:42 | 26.66281 | -80.35222 | 1983 ft | 184 kts | 63° |
| 2026-04-16 22:42 | 26.66885 | -80.33950 | 1986 ft | 190 kts | 63° |
| 2026-04-16 22:42 | 26.67512 | -80.32624 | 1991 ft | 195 kts | 63° |
| 2026-04-16 22:42 | 26.68157 | -80.31264 | 2001 ft | 196 kts | 63° |
| 2026-04-16 22:43 | 26.68790 | -80.29908 | 2001 ft | 197 kts | 65° |
| 2026-04-16 22:43 | 26.69190 | -80.28465 | 1998 ft | 195 kts | 80° |
| 2026-04-16 22:43 | 26.69241 | -80.26990 | 2090 ft | 180 kts | 94° |
| 2026-04-16 22:43 | 26.69064 | -80.25633 | 1994 ft | 169 kts | 96° |
| 2026-04-16 22:44 | 26.68943 | -80.24376 | 1983 ft | 157 kts | 94° |
| 2026-04-16 22:44 | 26.68865 | -80.23193 | 1984 ft | 147 kts | 92° |
| 2026-04-16 22:44 | 26.68808 | -80.22097 | 1977 ft | 134 kts | 91° |
| 2026-04-16 22:44 | 26.68760 | -80.21072 | 1791 ft | 132 kts | 90° |
| 2026-04-16 22:45 | 26.68717 | -80.20085 | 1659 ft | 124 kts | 91° |
| 2026-04-16 22:45 | 26.68676 | -80.19135 | 1486 ft | 120 kts | 91° |
| 2026-04-16 22:45 | 26.68636 | -80.18222 | 1341 ft | 115 kts | 91° |
| 2026-04-16 22:45 | 26.68599 | -80.17358 | 1252 ft | 104 kts | 91° |
| 2026-04-16 22:46 | 26.68564 | -80.16554 | 1060 ft | 103 kts | 91° |
| 2026-04-16 22:46 | 26.68530 | -80.15772 | 902 ft | 100 kts | 92° |
| 2026-04-16 22:46 | 26.68496 | -80.14999 | 765 ft | 98 kts | 92° |
| 2026-04-16 22:46 | 26.68467 | -80.14235 | 651 ft | 98 kts | 91° |
| 2026-04-16 22:47 | 26.68430 | -80.13472 | 543 ft | 99 kts | 92° |
| 2026-04-16 22:47 | 26.68389 | -80.12708 | 446 ft | 98 kts | 92° |
| 2026-04-16 22:47 | 26.68370 | -80.11942 | 286 ft | 101 kts | 92° |
| 2026-04-16 22:47 | 26.68330 | -80.11166 | 137 ft | 99 kts | 92° |
| 2026-04-16 22:48 | 26.68300 | -80.10410 | 39 ft | 93 kts | 91° |
| 2026-04-16 22:48 | 26.68272 | -80.09750 | 14 ft | 75 kts | 90° |
| 2026-04-16 22:48 | 26.68255 | -80.09312 | 14 ft | 47 kts | 92° |
| 2026-04-16 22:48 | 26.68242 | -80.09001 | 14 ft | 32 kts | 92° |
| 2026-04-16 22:49 | 26.68219 | -80.08872 | 14 ft | 8 kts | 167° |
| 2026-04-16 22:49 | 26.68174 | -80.08896 | 14 ft | 6 kts | 225° |
| 2026-04-16 22:49 | 26.68144 | -80.08930 | 14 ft | 5 kts | 226° |
| 2026-04-16 22:49 | 26.68118 | -80.08958 | 14 ft | 5 kts | 225° |
| 2026-04-16 22:50 | 26.68086 | -80.08993 | 14 ft | 7 kts | 225° |
| 2026-04-16 22:50 | 26.68039 | -80.09047 | 14 ft | 11 kts | 225° |
| 2026-04-16 22:50 | 26.67978 | -80.09116 | 14 ft | 14 kts | 225° |
| 2026-04-16 22:50 | 26.67920 | -80.09175 | 14 ft | 8 kts | 202° |
| 2026-04-16 22:51 | 26.67882 | -80.09215 | 14 ft | 6 kts | 260° |
| 2026-04-16 22:51 | 26.67902 | -80.09252 | 14 ft | 4 kts | 310° |
| 2026-04-16 22:51 | 26.67917 | -80.09272 | 15 ft | 2 kts | 311° |
| 2026-04-16 22:51 | 26.67932 | -80.09290 | 15 ft | 3 kts | 311° |
| 2026-04-16 22:52 | 26.67937 | -80.09315 | 16 ft | 3 kts | 277° |
| 2026-04-16 22:52 | 26.67928 | -80.09338 | 16 ft | 3 kts | 186° |
| 2026-04-16 22:52 | 26.67922 | -80.09339 | 16 ft | 0 kts | 185° |